プラハ の空港の天気 - METARとTAF

ルズィニエ国際空港(プラハ) ( LKPR / PRG ) - チェコ プラハ
飛行場実況気象(Metar)
観測時間04/27 18:30 CEST (04/27 16:30 UTC)
風向・風速不定 1m/s
視程10km以上
天気現象
少しの雲 雲底高度 1040m
全天の8割程度の雲 雲底高度 1310m
気温8℃
湿度61%
気圧1013hPa
METARLKPR 271630Z VRB02KT 9999 FEW034 BKN043 08/01 Q1013 NOSIG
過去の天気等 Google飛行場航空写真 Wunderground天気予報

過去48時間のMETAR

飛行場予報(TAF)
発表時間: 4/27 13:00 CEST (4/27 11:00 UTC)
予報対象時間: 27日14時 CEST ~ 28日20時 CEST
風向・風速北北東 4m/s
視程10km以上
全天の8割程度の雲 雲底高度 1,010m
27日14時 CEST ~ 27日19時 CEST に一時的に
天気現象弱いしゅう雨
全天の8割程度の雲 雲底高度 760m
27日20時 CEST ~ 27日23時 CEST に徐々に
視程5,000m
天気現象弱い雨 もや
全天の4割程度の雲 雲底高度 210m
全天の8割程度の雲 雲底高度 460m
27日23時 CEST ~ 28日10時 CEST に一時的に
視程2,500m
天気現象
全天の4割程度の雲 雲底高度 90m
全天の8割程度の雲 雲底高度 210m
28日10時 CEST ~ 28日12時 CEST に徐々に
風向・風速北 7m/s
視程9,000m
天気現象弱い雨
全天の8割程度の雲 雲底高度 610m
28日18時 CEST ~ 28日20時 CEST に徐々に
風向・風速北北西 4m/s
視程10km以上
全天の4割程度の雲 雲底高度 760m
TAF LKPR 271100Z 2712/2818 03008KT 9999 BKN033
TEMPO 2712/2717 -SHRA BKN025
BECMG 2718/2721 5000 -RA BR SCT007 BKN015
TEMPO 2721/2808 2500 RA SCT003 BKN007
BECMG 2808/2810 36014KT 9000 -RA BKN020
BECMG 2816/2818 33008KT 9999 SCT025